Weather History for Butler, PA

Change the Weather History Date:

Wednesday, February 27, 2013

  Actual Average Record
Temperature  
Mean Temperature 37 °F -  
Max Temperature 42 °F 39 °F 67 °F (1976)
Min Temperature 32 °F 23 °F -5 °F (1990)
Degree Days  
Heating Degree Days 28    
Moisture  
Dew Point 33 °F    
Average Humidity 88    
Maximum Humidity 93    
Minimum Humidity 70    
Precipitation  
Precipitation 0.25 in - - ()
Sea Level Pressure  
Sea Level Pressure 29.61 in    
Wind  
Wind Speed 9 mph (SSW)    
Max Wind Speed 14 mph    
Max Gust Speed 22 mph    
Visibility 9 miles    
Events      
Averages and records for this station are not official NWS values.
T = Trace of Precipitation, MM = Missing Value Source: NWS Daily Summary

Daily Weather History Graph

Daily Weather History Graph

Search for Another Location

Airport:

Trip Planner

Search our weather history database for the weather conditions in past years. The results will help you decide how hot, cold, wet, or windy it might be!

Date:

Astronomy

Feb. 27, 2013 Rise Set
Actual Time 6:56 AM EST 6:09 PM EST
Civil Twilight 6:28 AM EST 6:36 PM EST
Nautical Twilight 5:57 AM EST 7:08 PM EST
Astronomical Twilight 5:25 AM EST 7:40 PM EST
Moon 8:29 PM EST (2/27) 7:29 AM EST (2/27)
Length of Visible Light 12h 07m
Length of Day
11h 12m
Waning Gibbous, 96% of the Moon is Illuminated
Feb 27
Waning Gibbous
Mar 4
Last Quarter
Mar 11
New
Mar 19
First Quarter
Mar 27
Full

Hourly Weather History & Observations

Time (EST) Temp. Windchill Dew Point Humidity Pressure Visibility Wind Dir Wind Speed Gust Speed Precip Events Conditions
12:15 AM 35.6 °F 29.2 °F 32.0 °F 87% 29.58 in 10.0 mi ESE 8.1 mph - N/A   Overcast
12:35 AM 35.6 °F 28.0 °F 32.0 °F 87% 29.58 in 10.0 mi ESE 10.4 mph - N/A   Overcast
12:55 AM 35.6 °F 29.2 °F 32.0 °F 87% 29.58 in 10.0 mi East 8.1 mph - N/A   Overcast
1:15 AM 35.6 °F 28.6 °F 32.0 °F 87% 29.57 in 10.0 mi East 9.2 mph - N/A   Overcast
1:35 AM 35.6 °F 29.2 °F 32.0 °F 87% 29.57 in 10.0 mi East 8.1 mph - N/A   Overcast
1:55 AM 35.6 °F 28.6 °F 32.0 °F 87% 29.56 in 10.0 mi East 9.2 mph - N/A   Overcast
2:15 AM 35.6 °F 27.5 °F 32.0 °F 87% 29.57 in 10.0 mi East 11.5 mph - N/A   Overcast
2:35 AM 35.6 °F 27.5 °F 32.0 °F 87% 29.56 in 10.0 mi East 11.5 mph - N/A   Overcast
2:55 AM 35.6 °F 28.6 °F 32.0 °F 87% 29.56 in 10.0 mi East 9.2 mph - N/A   Overcast
3:15 AM 35.6 °F 28.6 °F 32.0 °F 87% 29.55 in 10.0 mi East 9.2 mph - N/A   Overcast
3:35 AM 35.6 °F 28.6 °F 32.0 °F 87% 29.55 in 7.0 mi ESE 9.2 mph - N/A   Overcast
3:55 AM 35.6 °F 29.2 °F 32.0 °F 87% 29.55 in 8.0 mi ESE 8.1 mph - 0.01 in   Overcast
4:15 AM 35.6 °F 29.2 °F 32.0 °F 87% 29.56 in 10.0 mi ESE 8.1 mph - 0.01 in   Overcast
4:35 AM 35.6 °F 28.0 °F 32.0 °F 87% 29.55 in 10.0 mi ESE 10.4 mph - 0.01 in   Overcast
4:55 AM 35.6 °F 29.2 °F 32.0 °F 87% 29.56 in 10.0 mi ESE 8.1 mph - 0.02 in   Overcast
5:15 AM 35.6 °F 29.9 °F 33.8 °F 93% 29.56 in 10.0 mi ESE 6.9 mph - 0.01 in   Overcast
5:35 AM 35.6 °F 30.7 °F 33.8 °F 93% 29.56 in 10.0 mi ESE 5.8 mph - 0.01 in   Overcast
5:55 AM 35.6 °F 31.7 °F 33.8 °F 93% 29.56 in 10.0 mi SE 4.6 mph - 0.01 in   Overcast
6:15 AM 35.6 °F 30.7 °F 33.8 °F 93% 29.56 in 10.0 mi SE 5.8 mph - 0.01 in   Overcast
6:35 AM 35.6 °F 32.8 °F 33.8 °F 93% 29.56 in 8.0 mi SSE 3.5 mph - 0.03 in   Overcast
6:55 AM 35.6 °F 32.8 °F 33.8 °F 93% 29.56 in 7.0 mi SSE 3.5 mph - 0.03 in   Overcast
7:15 AM 35.6 °F 29.9 °F 33.8 °F 93% 29.57 in 7.0 mi West 6.9 mph - 0.01 in   Overcast
7:55 AM 37.4 °F 30.8 °F 35.6 °F 93% 29.59 in 10.0 mi WSW 9.2 mph - 0.04 in   Overcast
8:15 AM 37.4 °F 32.1 °F 35.6 °F 93% 29.60 in 9.0 mi WSW 6.9 mph - 0.02 in   Overcast
8:35 AM 37.4 °F 32.1 °F 35.6 °F 93% 29.60 in 10.0 mi WSW 6.9 mph - 0.02 in   Overcast
8:55 AM 37.4 °F 31.4 °F 35.6 °F 93% 29.60 in 10.0 mi SW 8.1 mph - 0.02 in   Overcast
9:15 AM 37.4 °F 30.3 °F 35.6 °F 93% 29.60 in 10.0 mi WSW 10.4 mph 17.3 mph 0.01 in   Overcast
9:35 AM 37.4 °F 30.8 °F 35.6 °F 93% 29.60 in 10.0 mi WSW 9.2 mph - 0.01 in   Overcast
9:55 AM 37.4 °F 31.4 °F 35.6 °F 93% 29.61 in 10.0 mi WSW 8.1 mph - 0.01 in   Overcast
10:15 AM 39.2 °F 33.6 °F 35.6 °F 87% 29.61 in 10.0 mi WSW 8.1 mph - N/A   Overcast
10:35 AM 39.2 °F 34.2 °F 35.6 °F 87% 29.62 in 10.0 mi WSW 6.9 mph - N/A   Overcast
10:55 AM 39.2 °F 33.0 °F 35.6 °F 87% 29.62 in 10.0 mi West 9.2 mph - N/A   Overcast
11:15 AM 39.2 °F 35.0 °F 35.6 °F 87% 29.63 in 10.0 mi West 5.8 mph - N/A   Overcast
11:35 AM 39.2 °F 34.2 °F 35.6 °F 87% 29.63 in 10.0 mi WSW 6.9 mph - N/A   Overcast
11:55 AM 42.8 °F 38.0 °F 35.6 °F 76% 29.62 in 10.0 mi SW 8.1 mph - N/A   Overcast
12:15 PM 42.8 °F 36.6 °F 35.6 °F 76% 29.61 in 10.0 mi WSW 11.5 mph 19.6 mph N/A   Overcast
12:35 PM 42.8 °F 35.8 °F 33.8 °F 70% 29.62 in 10.0 mi WSW 13.8 mph - N/A   Overcast
12:55 PM 42.8 °F 36.2 °F 33.8 °F 70% 29.62 in 10.0 mi WSW 12.7 mph 17.3 mph N/A   Overcast
1:15 PM 41.0 °F 34.3 °F 33.8 °F 76% 29.62 in 10.0 mi WSW 11.5 mph 20.7 mph N/A   Overcast
1:35 PM 41.0 °F 35.2 °F 33.8 °F 76% 29.62 in 10.0 mi WSW 9.2 mph - N/A   Overcast
1:55 PM 39.2 °F 31.2 °F 33.8 °F 81% 29.63 in 10.0 mi WSW 13.8 mph 21.9 mph N/A   Overcast
2:15 PM 39.2 °F 31.2 °F 33.8 °F 81% 29.62 in 10.0 mi WSW 13.8 mph - N/A   Overcast
2:35 PM 39.2 °F 31.6 °F 33.8 °F 81% 29.62 in 10.0 mi WSW 12.7 mph 17.3 mph N/A   Overcast
2:55 PM 39.2 °F 32.0 °F 33.8 °F 81% 29.63 in 10.0 mi SW 11.5 mph - N/A   Overcast
3:15 PM 37.4 °F 30.8 °F 33.8 °F 87% 29.63 in 5.0 mi SW 9.2 mph 20.7 mph 0.02 in   Overcast
3:35 PM 37.4 °F 32.1 °F 33.8 °F 87% 29.63 in 9.0 mi SW 6.9 mph - 0.02 in   Overcast
3:55 PM 37.4 °F 33.8 °F 35.6 °F 93% 29.64 in 10.0 mi SSW 4.6 mph - 0.02 in   Overcast
4:15 PM 37.4 °F 32.8 °F 35.6 °F 93% 29.63 in 6.0 mi SW 5.8 mph - N/A   Overcast
4:35 PM 37.4 °F 32.8 °F 35.6 °F 93% 29.63 in 10.0 mi SW 5.8 mph - N/A   Overcast
4:55 PM 37.4 °F 30.8 °F 33.8 °F 87% 29.64 in 5.0 mi SW 9.2 mph - 0.01 in   Overcast
5:15 PM 37.4 °F 29.8 °F 33.8 °F 87% 29.64 in 6.0 mi SW 11.5 mph - 0.01 in   Overcast
5:35 PM 37.4 °F 29.8 °F 33.8 °F 87% 29.65 in 7.0 mi SW 11.5 mph 16.1 mph 0.01 in   Overcast
5:55 PM 37.4 °F 30.8 °F 33.8 °F 87% 29.65 in 7.0 mi WSW 9.2 mph - 0.02 in   Overcast
6:15 PM 35.6 °F 29.2 °F 33.8 °F 93% 29.65 in 10.0 mi WSW 8.1 mph - N/A   Overcast
6:35 PM 35.6 °F 29.9 °F 33.8 °F 93% 29.66 in 9.0 mi WSW 6.9 mph - 0.01 in   Overcast
6:55 PM 35.6 °F 28.6 °F 33.8 °F 93% 29.66 in 10.0 mi WSW 9.2 mph - 0.02 in   Overcast
7:15 PM 35.6 °F 28.6 °F 32.0 °F 87% 29.66 in 10.0 mi WSW 9.2 mph - 0.01 in   Overcast
7:35 PM 33.8 °F 27.0 °F 32.0 °F 93% 29.67 in 7.0 mi WSW 8.1 mph - 0.02 in   Overcast
7:55 PM 33.8 °F 30.8 °F 32.0 °F 93% 29.66 in 6.0 mi SW 3.5 mph - 0.02 in   Overcast
8:15 PM 33.8 °F 27.7 °F 32.0 °F 93% 29.66 in 9.0 mi SW 6.9 mph - 0.01 in   Overcast
8:35 PM 35.6 °F 30.7 °F 33.8 °F 93% 29.65 in 8.0 mi SW 5.8 mph - 0.01 in   Overcast
9:15 PM 33.8 °F 24.8 °F 30.2 °F 87% 29.66 in 10.0 mi WSW 12.7 mph - 0.01 in   Overcast
9:35 PM 33.8 °F 27.0 °F 30.2 °F 87% 29.66 in 8.0 mi WSW 8.1 mph - 0.01 in   Overcast
9:55 PM 33.8 °F 27.0 °F 30.2 °F 87% 29.66 in 10.0 mi SW 8.1 mph - 0.01 in   Mostly Cloudy
10:15 PM 33.8 °F 27.7 °F 30.2 °F 87% 29.65 in 10.0 mi SW 6.9 mph - N/A   Partly Cloudy
10:35 PM 33.8 °F 28.6 °F 30.2 °F 87% 29.65 in 10.0 mi SW 5.8 mph - N/A   Partly Cloudy
10:55 PM 33.8 °F 27.7 °F 30.2 °F 87% 29.64 in 10.0 mi SW 6.9 mph - N/A   Mostly Cloudy
11:35 PM 32.0 °F 24.2 °F 30.2 °F 93% 29.64 in 10.0 mi SW 9.2 mph - N/A   Mostly Cloudy
11:55 PM 33.8 °F 28.6 °F 30.2 °F 87% 29.64 in 10.0 mi SW 5.8 mph - N/A   Overcast